createdAt,value
2018-12-22T00:00:23.933Z,14.67
2018-12-22T00:02:55.666Z,14.37
2018-12-22T00:05:27.319Z,14.87
2018-12-22T00:07:57.973Z,14.27
2018-12-22T00:10:29.301Z,15.03
2018-12-22T00:13:01.632Z,14.67
2018-12-22T00:15:33.066Z,15.07
2018-12-22T00:18:03.557Z,17.57
2018-12-22T00:20:34.182Z,17.70
2018-12-22T00:23:04.888Z,17.37
2018-12-22T00:25:35.964Z,20.03
2018-12-22T00:28:06.440Z,20.07
2018-12-22T00:30:36.018Z,18.87
2018-12-22T00:33:07.139Z,18.93
2018-12-22T00:35:38.862Z,19.10
2018-12-22T00:38:09.060Z,20.60
2018-12-22T00:40:38.819Z,19.40
2018-12-22T00:43:08.543Z,22.73
2018-12-22T00:45:38.644Z,17.47
2018-12-22T00:48:09.928Z,18.23
2018-12-22T00:50:41.497Z,15.30
2018-12-22T00:53:12.928Z,13.47
2018-12-22T00:55:43.334Z,10.70
2018-12-22T00:58:13.222Z,8.87
2018-12-22T01:00:43.486Z,9.13
2018-12-22T01:03:13.789Z,10.17
2018-12-22T01:05:45.485Z,9.83
2018-12-22T01:08:15.599Z,10.90
2018-12-22T01:10:46.044Z,10.53
2018-12-22T01:13:15.610Z,9.73
2018-12-22T01:15:45.460Z,9.33
2018-12-22T01:18:16.317Z,10.13
2018-12-22T01:20:46.296Z,10.13
2018-12-22T01:23:16.208Z,10.33
2018-12-22T01:25:47.295Z,11.77
2018-12-22T01:28:18.382Z,11.73
2018-12-22T01:30:48.373Z,10.70
2018-12-22T01:33:20.091Z,12.33
2018-12-22T01:35:51.355Z,11.87
2018-12-22T01:38:22.317Z,11.37
2018-12-22T01:40:52.700Z,11.43
2018-12-22T01:43:27.121Z,11.37
2018-12-22T01:45:57.602Z,12.27
2018-12-22T01:48:27.958Z,12.47
2018-12-22T01:51:00.874Z,13.00
2018-12-22T01:53:30.699Z,14.67
2018-12-22T01:56:00.281Z,12.93
2018-12-22T01:58:32.160Z,13.87
2018-12-22T02:01:02.179Z,13.27
2018-12-22T02:03:32.039Z,15.03
2018-12-22T02:06:03.512Z,13.33
2018-12-22T02:08:34.105Z,14.30
2018-12-22T02:11:04.580Z,14.93
2018-12-22T02:13:35.120Z,17.00
2018-12-22T02:16:06.409Z,13.63
2018-12-22T02:18:36.897Z,14.37
2018-12-22T02:21:09.406Z,15.00
2018-12-22T02:23:39.600Z,13.10
2018-12-22T02:26:10.534Z,12.90
2018-12-22T02:28:40.104Z,11.37
2018-12-22T02:31:11.855Z,13.70
2018-12-22T02:33:44.920Z,12.07
2018-12-22T02:36:17.293Z,12.50
2018-12-22T02:38:48.264Z,13.10
2018-12-22T02:41:20.620Z,10.60
2018-12-22T02:43:52.752Z,12.67
2018-12-22T02:46:23.962Z,12.77
2018-12-22T02:48:54.069Z,11.73
2018-12-22T02:51:24.211Z,12.13
2018-12-22T02:53:55.076Z,12.00
2018-12-22T02:56:25.121Z,14.17
2018-12-22T02:59:05.642Z,12.67
2018-12-22T03:01:31.264Z,11.07
2018-12-22T03:04:06.410Z,12.37
2018-12-22T03:06:38.721Z,11.70
2018-12-22T03:09:12.793Z,11.37
2018-12-22T03:11:42.772Z,13.20
2018-12-22T03:14:13.127Z,13.53
2018-12-22T03:16:42.803Z,13.50
2018-12-22T03:19:12.608Z,13.13
2018-12-22T03:21:42.734Z,12.27
2018-12-22T03:24:13.179Z,12.43
2018-12-22T03:26:42.878Z,12.73
2018-12-22T03:29:15.811Z,11.67
2018-12-22T03:31:46.003Z,12.60
2018-12-22T03:34:15.980Z,13.27
2018-12-22T03:36:48.320Z,13.60
2018-12-22T03:39:20.066Z,13.77
2018-12-22T03:41:50.671Z,12.33
2018-12-22T03:44:21.481Z,13.27
2018-12-22T03:46:51.756Z,14.33
2018-12-22T03:49:21.679Z,13.27
2018-12-22T03:51:52.416Z,12.37
2018-12-22T03:54:24.465Z,13.80
2018-12-22T03:56:54.841Z,14.07
2018-12-22T03:59:25.292Z,15.40
2018-12-22T04:01:56.696Z,15.17
2018-12-22T04:04:27.742Z,15.70
2018-12-22T04:06:59.358Z,17.33
2018-12-22T04:09:29.893Z,16.43
2018-12-22T04:12:01.072Z,17.07
2018-12-22T04:14:31.330Z,16.00
2018-12-22T04:17:00.940Z,16.97
2018-12-22T04:19:36.731Z,16.70
2018-12-22T04:22:06.281Z,19.20
2018-12-22T04:24:39.032Z,16.67
2018-12-22T04:27:10.410Z,16.90
2018-12-22T04:29:40.623Z,17.47
2018-12-22T04:32:11.399Z,17.60
2018-12-22T04:34:42.307Z,20.93
2018-12-22T04:37:11.918Z,18.00
2018-12-22T04:39:41.618Z,18.20
2018-12-22T04:42:11.904Z,16.47
2018-12-22T04:44:42.109Z,13.00
2018-12-22T04:47:11.469Z,15.10
2018-12-22T04:49:41.387Z,14.63
2018-12-22T04:52:11.645Z,11.50
2018-12-22T04:54:41.939Z,9.27
2018-12-22T04:57:11.665Z,11.03
2018-12-22T04:59:43.458Z,8.70
2018-12-22T05:02:13.965Z,8.17
2018-12-22T05:04:45.212Z,9.27
2018-12-22T05:07:15.245Z,8.77
2018-12-22T05:09:45.404Z,9.57
2018-12-22T05:12:15.357Z,10.23
2018-12-22T05:14:45.111Z,9.37
2018-12-22T05:17:15.539Z,9.33
2018-12-22T05:19:45.252Z,12.43
2018-12-22T05:22:14.988Z,11.93
2018-12-22T05:24:44.704Z,12.97
2018-12-22T05:27:14.795Z,13.60
2018-12-22T05:29:51.866Z,14.27
2018-12-22T05:32:17.601Z,14.00
2018-12-22T05:34:48.688Z,16.60
2018-12-22T05:37:18.571Z,17.40
2018-12-22T05:39:48.180Z,14.03
2018-12-22T05:42:17.978Z,15.50
2018-12-22T05:44:47.985Z,13.80
2018-12-22T05:47:17.707Z,12.67
2018-12-22T05:49:49.509Z,13.40
2018-12-22T05:52:19.259Z,11.90
2018-12-22T05:54:49.259Z,10.60
2018-12-22T05:57:19.107Z,9.13
2018-12-22T05:59:49.400Z,9.80
2018-12-22T06:02:19.134Z,9.27
2018-12-22T06:04:49.502Z,8.27
2018-12-22T06:07:21.422Z,7.33
2018-12-22T06:09:51.186Z,6.70
2018-12-22T06:12:20.923Z,6.33
2018-12-22T06:14:51.192Z,6.10
2018-12-22T06:17:21.168Z,7.33
2018-12-22T06:19:50.992Z,8.63
2018-12-22T06:22:20.471Z,14.17
2018-12-22T06:24:51.171Z,14.97
2018-12-22T06:27:21.917Z,17.00
2018-12-22T06:29:54.699Z,20.07
2018-12-22T06:32:24.766Z,16.10
2018-12-22T06:34:54.974Z,15.87
2018-12-22T06:37:25.693Z,14.80
2018-12-22T06:39:55.450Z,11.90
2018-12-22T06:42:25.445Z,10.87
2018-12-22T06:44:56.877Z,10.00
2018-12-22T06:47:27.163Z,8.50
2018-12-22T06:49:58.343Z,8.87
2018-12-22T06:52:29.588Z,10.07
2018-12-22T06:54:59.445Z,8.50
2018-12-22T06:57:30.268Z,7.77
2018-12-22T07:00:01.153Z,8.57
2018-12-22T07:02:35.359Z,7.10
2018-12-22T07:05:10.733Z,7.23
2018-12-22T07:07:44.829Z,7.70
2018-12-22T07:10:15.043Z,6.33
2018-12-22T07:12:46.108Z,5.80
2018-12-22T07:15:17.253Z,5.93
2018-12-22T07:17:48.362Z,5.80
2018-12-22T07:20:17.964Z,6.00
2018-12-22T07:22:48.498Z,5.20
2018-12-22T07:25:19.821Z,5.47
2018-12-22T07:27:49.928Z,5.50
2018-12-22T07:30:26.187Z,4.87
2018-12-22T07:32:57.589Z,5.37
2018-12-22T07:35:29.026Z,5.70
2018-12-22T07:37:59.141Z,6.03
2018-12-22T07:40:30.109Z,7.07
2018-12-22T07:43:00.484Z,7.50
2018-12-22T07:45:31.209Z,7.90
2018-12-22T07:48:02.917Z,7.77
2018-12-22T07:50:33.113Z,8.00
2018-12-22T07:53:04.244Z,9.50
2018-12-22T07:55:33.949Z,8.37
2018-12-22T07:58:04.707Z,9.67
2018-12-22T08:00:36.977Z,8.03
2018-12-22T08:03:07.445Z,9.17
2018-12-22T08:05:39.015Z,10.57
2018-12-22T08:08:09.173Z,7.67
2018-12-22T08:10:40.904Z,7.10
2018-12-22T08:13:15.880Z,7.07
2018-12-22T08:15:45.875Z,5.63
2018-12-22T08:18:15.868Z,5.10
2018-12-22T08:20:47.632Z,4.57
2018-12-22T08:23:18.440Z,4.30
2018-12-22T08:25:48.261Z,3.87
2018-12-22T08:28:18.444Z,4.20
2018-12-22T08:30:48.364Z,4.27
2018-12-22T08:33:18.475Z,3.90
2018-12-22T08:35:48.160Z,3.23
2018-12-22T08:38:18.488Z,3.90
2018-12-22T08:40:50.000Z,3.70
2018-12-22T08:43:21.401Z,3.87
2018-12-22T08:45:54.716Z,3.50
2018-12-22T08:48:25.223Z,3.63
2018-12-22T08:51:00.150Z,4.23
2018-12-22T08:53:33.443Z,4.00
2018-12-22T08:56:05.212Z,3.97
2018-12-22T08:58:37.758Z,3.40
2018-12-22T09:01:11.379Z,3.57
2018-12-22T09:03:42.637Z,4.13
2018-12-22T09:06:13.515Z,4.00
2018-12-22T09:08:43.542Z,3.40
2018-12-22T09:11:13.337Z,4.83
2018-12-22T09:13:43.153Z,6.97
2018-12-22T09:16:14.825Z,6.73
2018-12-22T09:18:51.431Z,8.87
2018-12-22T09:21:21.709Z,10.07
2018-12-22T09:23:51.743Z,4.00
2018-12-22T09:26:22.332Z,3.50
2018-12-22T09:28:52.700Z,3.20
2018-12-22T09:31:22.845Z,3.70
2018-12-22T09:33:54.833Z,2.97
2018-12-22T09:36:25.101Z,3.27
2018-12-22T09:41:21.540Z,2.50
2018-12-22T09:43:52.236Z,2.10
2018-12-22T09:46:22.435Z,2.10
2018-12-22T09:48:55.967Z,2.00
2018-12-22T09:51:25.888Z,2.20
2018-12-22T09:53:57.544Z,2.23
2018-12-22T09:56:29.128Z,2.40
2018-12-22T09:58:59.309Z,2.43
2018-12-22T10:01:30.213Z,2.70
2018-12-22T10:04:00.276Z,2.47
2018-12-22T10:06:30.892Z,2.70
2018-12-22T10:09:04.057Z,3.10
2018-12-22T10:11:34.863Z,2.40
2018-12-22T10:14:04.769Z,2.27
2018-12-22T10:16:34.914Z,2.40
2018-12-22T10:19:06.620Z,2.37
2018-12-22T10:21:38.578Z,2.33
2018-12-22T10:24:09.286Z,2.87
2018-12-22T10:26:40.836Z,3.83
2018-12-22T10:29:12.771Z,4.63
2018-12-22T10:31:43.466Z,5.80
2018-12-22T10:34:14.923Z,8.40
2018-12-22T10:36:45.580Z,9.67
2018-12-22T10:39:16.863Z,10.53
2018-12-22T10:41:48.332Z,11.77
2018-12-22T10:44:20.523Z,13.13
2018-12-22T10:46:52.287Z,12.17
2018-12-22T10:49:24.229Z,13.37
2018-12-22T10:51:55.387Z,14.77
2018-12-22T10:54:26.229Z,13.97
2018-12-22T10:56:56.981Z,13.53
2018-12-22T10:59:26.781Z,13.40
2018-12-22T11:01:58.660Z,12.00
2018-12-22T11:04:30.350Z,12.23
2018-12-22T11:07:01.372Z,11.57
2018-12-22T11:09:31.946Z,9.57
2018-12-22T11:12:02.672Z,10.07
2018-12-22T11:14:33.518Z,9.70
2018-12-22T11:17:04.141Z,9.67
2018-12-22T11:19:37.729Z,8.60
2018-12-22T11:22:07.562Z,9.33
2018-12-22T11:24:37.816Z,8.67
2018-12-22T11:27:08.641Z,8.70
2018-12-22T11:29:41.909Z,8.63
2018-12-22T11:32:11.749Z,8.17
2018-12-22T11:34:44.090Z,8.73
2018-12-22T11:37:16.293Z,9.10
2018-12-22T11:39:50.798Z,8.97
2018-12-22T11:42:23.376Z,8.07
2018-12-22T11:44:53.824Z,8.40
2018-12-22T11:47:32.162Z,8.30
2018-12-22T11:50:08.550Z,8.33
2018-12-22T11:52:42.161Z,7.80
2018-12-22T11:55:15.516Z,7.87
2018-12-22T11:57:52.317Z,6.83
2018-12-22T12:00:23.977Z,6.27
2018-12-22T12:02:54.958Z,5.90
2018-12-22T12:05:25.704Z,5.30
2018-12-22T12:07:58.220Z,5.53
2018-12-22T12:10:29.571Z,5.73
2018-12-22T12:12:59.954Z,5.57
2018-12-22T12:15:44.050Z,5.53
2018-12-22T12:18:26.459Z,6.00
2018-12-22T12:20:57.109Z,5.30
2018-12-22T12:23:28.919Z,5.30
2018-12-22T12:25:58.377Z,5.87
2018-12-22T12:28:31.217Z,5.27
2018-12-22T12:31:02.412Z,4.80
2018-12-22T12:33:32.136Z,3.93
2018-12-22T12:36:04.881Z,4.30
2018-12-22T12:38:36.024Z,4.13
2018-12-22T12:41:07.922Z,4.43
2018-12-22T12:43:38.717Z,3.30
2018-12-22T12:46:08.358Z,4.20
2018-12-22T12:48:39.364Z,3.87
2018-12-22T12:51:09.613Z,3.47
2018-12-22T12:53:41.627Z,2.57
2018-12-22T12:56:12.345Z,3.57
2018-12-22T12:58:43.133Z,2.60
2018-12-22T13:01:13.545Z,3.60
2018-12-22T13:03:45.529Z,3.30
2018-12-22T13:06:16.916Z,2.80
2018-12-22T13:08:50.097Z,3.13
2018-12-22T13:11:21.063Z,3.20
2018-12-22T13:13:58.021Z,3.50
2018-12-22T13:16:29.469Z,4.10
2018-12-22T13:19:00.781Z,5.40
2018-12-22T13:21:31.681Z,3.87
2018-12-22T13:24:05.423Z,3.83
2018-12-22T13:26:36.844Z,3.73
2018-12-22T13:29:08.790Z,4.17
2018-12-22T13:31:41.003Z,4.03
2018-12-22T13:34:13.333Z,4.13
2018-12-22T13:36:45.671Z,3.60
2018-12-22T13:39:19.430Z,3.53
2018-12-22T13:41:52.460Z,3.60
2018-12-22T13:44:24.594Z,3.63
2018-12-22T13:46:57.053Z,4.10
2018-12-22T13:49:26.813Z,4.43
2018-12-22T13:51:58.956Z,4.30
2018-12-22T13:54:30.982Z,4.23
2018-12-22T13:57:02.412Z,4.57
2018-12-22T13:59:32.755Z,3.50
2018-12-22T14:02:06.958Z,3.63
2018-12-22T14:04:37.769Z,4.20
2018-12-22T14:07:13.529Z,4.07
2018-12-22T14:09:46.055Z,3.97
2018-12-22T14:12:17.796Z,4.13
2018-12-22T14:14:47.651Z,5.20
2018-12-22T14:17:23.920Z,5.23
2018-12-22T14:20:03.128Z,5.43
2018-12-22T14:22:38.105Z,5.07
2018-12-22T14:25:14.804Z,5.83
2018-12-22T14:27:45.777Z,5.40
2018-12-22T14:30:16.408Z,4.70
2018-12-22T14:32:46.799Z,4.87
2018-12-22T14:38:21.613Z,5.90
2018-12-22T14:40:56.587Z,6.80
2018-12-22T14:43:28.360Z,6.57
2018-12-22T14:45:59.380Z,6.60
2018-12-22T14:48:29.556Z,6.00
2018-12-22T14:51:00.560Z,5.27
2018-12-22T14:53:30.314Z,4.83
2018-12-22T14:56:00.107Z,4.20
2018-12-22T14:58:33.260Z,4.40
2018-12-22T15:01:03.824Z,6.53
2018-12-22T15:03:37.559Z,10.57
2018-12-22T15:06:10.413Z,8.30
2018-12-22T15:08:40.158Z,4.50
2018-12-22T15:11:10.938Z,3.17
2018-12-22T15:13:43.011Z,3.43
2018-12-22T15:16:14.760Z,1.90
2018-12-22T15:18:48.177Z,2.03
2018-12-22T15:21:18.137Z,2.43
2018-12-22T15:23:51.575Z,2.80
2018-12-22T15:26:23.346Z,2.10
2018-12-22T15:28:53.801Z,2.30
2018-12-22T15:31:26.409Z,1.97
2018-12-22T15:33:57.557Z,1.90
2018-12-22T15:36:30.900Z,1.97
2018-12-22T15:39:04.046Z,1.70
2018-12-22T15:41:36.964Z,1.90
2018-12-22T15:44:12.945Z,2.20
2018-12-22T15:46:48.080Z,2.77
2018-12-22T15:49:22.524Z,4.17
2018-12-22T15:51:53.585Z,9.17
2018-12-22T15:54:24.036Z,7.80
2018-12-22T15:56:56.992Z,7.47
2018-12-22T15:59:31.934Z,5.50
2018-12-22T16:02:01.901Z,6.43
2018-12-22T16:04:34.673Z,3.67
2018-12-22T16:07:06.552Z,4.33
2018-12-22T16:09:44.524Z,2.90
2018-12-22T16:12:15.942Z,3.17
2018-12-22T16:14:47.289Z,3.03
2018-12-22T16:17:18.986Z,3.07
2018-12-22T16:19:49.075Z,1.70
2018-12-22T16:22:21.568Z,2.20
2018-12-22T16:24:53.660Z,2.43
2018-12-22T16:27:23.373Z,1.90
2018-12-22T16:29:53.799Z,2.57
2018-12-22T16:32:28.467Z,2.97
2018-12-22T16:34:59.756Z,3.00
2018-12-22T16:37:31.165Z,3.70
2018-12-22T16:40:03.427Z,4.83
2018-12-22T16:42:38.188Z,4.50
2018-12-22T16:45:11.808Z,5.60
2018-12-22T16:47:44.576Z,5.83
2018-12-22T16:50:17.564Z,5.67
2018-12-22T16:52:50.573Z,5.63
2018-12-22T16:55:21.906Z,6.23
2018-12-22T16:58:00.409Z,5.20
2018-12-22T17:00:32.092Z,5.93
2018-12-22T17:03:11.223Z,4.90
2018-12-22T17:05:40.872Z,4.77
2018-12-22T17:08:11.646Z,4.80
2018-12-22T17:10:50.009Z,4.37
2018-12-22T17:13:21.425Z,5.20
2018-12-22T17:15:58.349Z,5.60
2018-12-22T17:18:28.879Z,5.13
2018-12-22T17:21:35.986Z,3.70
2018-12-22T17:24:11.684Z,3.40
2018-12-22T17:26:46.193Z,3.10
2018-12-22T17:29:17.965Z,3.67
2018-12-22T17:31:47.820Z,4.00
2018-12-22T17:34:18.868Z,3.83
2018-12-22T17:36:49.095Z,3.30
2018-12-22T17:39:19.621Z,2.67
2018-12-22T17:41:52.275Z,3.30
2018-12-22T17:44:22.480Z,3.27
2018-12-22T17:46:56.442Z,2.93
2018-12-22T17:49:29.396Z,4.20
2018-12-22T17:52:01.714Z,6.37
2018-12-22T17:54:33.045Z,4.03
2018-12-22T17:57:04.157Z,3.70
2018-12-22T17:59:36.837Z,4.00
2018-12-22T18:02:08.286Z,4.80
2018-12-22T18:04:42.874Z,4.03
2018-12-22T18:07:15.558Z,5.00
2018-12-22T18:09:47.130Z,4.10
2018-12-22T18:12:17.922Z,4.70
2018-12-22T18:14:48.466Z,4.90
2018-12-22T18:17:20.981Z,4.20
2018-12-22T18:19:52.496Z,5.30
2018-12-22T18:22:25.441Z,5.13
2018-12-22T18:25:00.943Z,6.07
2018-12-22T18:27:33.673Z,5.20
2018-12-22T18:30:05.668Z,5.40
2018-12-22T18:32:38.186Z,5.50
2018-12-22T18:35:10.449Z,6.40
2018-12-22T18:37:43.213Z,6.30
2018-12-22T18:40:17.244Z,6.27
2018-12-22T18:42:48.426Z,8.33
2018-12-22T18:45:18.933Z,8.30
2018-12-22T18:47:49.336Z,7.83
2018-12-22T18:50:23.273Z,7.47
2018-12-22T18:52:54.213Z,7.97
2018-12-22T18:55:25.365Z,9.57
2018-12-22T18:57:56.809Z,9.90
2018-12-22T19:00:29.671Z,11.20
2018-12-22T19:03:01.946Z,10.33
2018-12-22T19:05:33.632Z,9.97
2018-12-22T19:08:06.924Z,9.63
2018-12-22T19:10:45.126Z,10.40
2018-12-22T19:13:15.166Z,10.07
2018-12-22T19:15:46.145Z,10.87
2018-12-22T19:18:16.538Z,11.50
2018-12-22T19:20:53.404Z,11.83
2018-12-22T19:23:29.036Z,11.80
2018-12-22T19:26:01.338Z,10.97
2018-12-22T19:28:31.961Z,10.27
2018-12-22T19:31:04.315Z,8.47
2018-12-22T19:33:36.979Z,8.47
2018-12-22T19:36:11.586Z,7.70
2018-12-22T19:38:42.373Z,8.47
2018-12-22T19:41:12.950Z,8.43
2018-12-22T19:43:45.753Z,8.47
2018-12-22T19:46:16.240Z,9.80
2018-12-22T19:48:50.784Z,10.23
2018-12-22T19:51:22.129Z,8.87
2018-12-22T19:53:54.016Z,9.53
2018-12-22T19:56:25.535Z,8.93
2018-12-22T19:58:57.129Z,8.37
2018-12-22T20:01:28.679Z,7.53
2018-12-22T20:04:02.221Z,6.90
2018-12-22T20:06:33.116Z,7.30
2018-12-22T20:09:05.811Z,7.17
2018-12-22T20:11:38.005Z,7.07
2018-12-22T20:14:07.733Z,7.10
2018-12-22T20:16:38.680Z,6.57
2018-12-22T20:19:09.563Z,6.90
2018-12-22T20:21:40.179Z,6.70
2018-12-22T20:24:11.501Z,5.77
2018-12-22T20:26:42.280Z,5.93
2018-12-22T20:29:13.921Z,6.70
2018-12-22T20:31:44.934Z,5.10
2018-12-22T20:34:15.612Z,5.20
2018-12-22T20:36:45.681Z,4.70
2018-12-22T20:39:17.141Z,4.33
2018-12-22T20:41:49.425Z,4.30
2018-12-22T20:44:28.879Z,5.57
2018-12-22T20:47:07.748Z,6.20
2018-12-22T20:49:43.487Z,6.13
2018-12-22T20:52:13.001Z,8.07
2018-12-22T20:54:42.632Z,8.37
2018-12-22T20:57:13.036Z,7.57
2018-12-22T20:59:44.757Z,7.97
2018-12-22T21:02:15.956Z,8.43
2018-12-22T21:04:48.648Z,9.07
2018-12-22T21:07:21.673Z,9.23
2018-12-22T21:09:52.701Z,10.70
2018-12-22T21:12:25.835Z,11.03
2018-12-22T21:14:57.005Z,10.67
2018-12-22T21:17:28.372Z,11.20
2018-12-22T21:20:01.225Z,11.17
2018-12-22T21:22:33.195Z,11.03
2018-12-22T21:28:42.988Z,14.63
2018-12-22T21:31:20.785Z,13.23
2018-12-22T21:33:58.184Z,13.50
2018-12-22T21:36:33.847Z,14.10
2018-12-22T21:39:09.919Z,12.20
2018-12-22T21:41:45.190Z,13.13
2018-12-22T21:44:23.779Z,12.83
2018-12-22T21:47:00.984Z,13.40
2018-12-22T21:49:37.546Z,12.63
2018-12-22T21:52:10.430Z,12.53
2018-12-22T21:54:42.293Z,12.23
2018-12-22T21:57:12.731Z,12.40
2018-12-22T21:59:43.098Z,13.07
2018-12-22T22:02:16.729Z,13.23
2018-12-22T22:04:46.954Z,13.20
2018-12-22T22:07:19.083Z,15.03
2018-12-22T22:09:49.718Z,15.07
2018-12-22T22:12:20.178Z,15.27
2018-12-22T22:14:50.366Z,16.03
2018-12-22T22:17:20.521Z,14.20
2018-12-22T22:19:52.611Z,14.90
2018-12-22T22:22:25.631Z,14.87
2018-12-22T22:24:57.476Z,14.47
2018-12-22T22:27:28.719Z,14.57
2018-12-22T22:29:59.237Z,16.33
2018-12-22T22:32:29.514Z,12.90
2018-12-22T22:35:00.715Z,12.90
2018-12-22T22:37:32.480Z,13.60
2018-12-22T22:40:07.802Z,13.00
2018-12-22T22:42:39.046Z,12.23
2018-12-22T22:45:10.456Z,12.43
2018-12-22T22:47:45.698Z,12.07
2018-12-22T22:50:17.916Z,12.87
2018-12-22T22:52:49.287Z,11.63
2018-12-22T22:55:20.699Z,13.17
2018-12-22T22:57:52.287Z,11.57
2018-12-22T23:00:27.204Z,11.23
2018-12-22T23:02:59.410Z,11.47
2018-12-22T23:05:30.428Z,11.40
2018-12-22T23:08:00.556Z,11.23
2018-12-22T23:10:32.725Z,10.90
2018-12-22T23:13:02.466Z,9.70
2018-12-22T23:15:34.113Z,10.47
2018-12-22T23:18:04.392Z,9.17
2018-12-22T23:20:35.580Z,8.53
2018-12-22T23:23:05.272Z,8.37
2018-12-22T23:25:35.145Z,8.83
2018-12-22T23:28:07.697Z,9.60
2018-12-22T23:30:37.740Z,9.43
2018-12-22T23:33:08.713Z,7.90
2018-12-22T23:35:38.722Z,7.20
2018-12-22T23:38:08.900Z,6.50
2018-12-22T23:40:40.629Z,7.27
2018-12-22T23:43:10.748Z,6.50
2018-12-22T23:45:40.562Z,6.47
2018-12-22T23:48:15.036Z,6.23
2018-12-22T23:50:44.854Z,6.70
2018-12-22T23:53:16.108Z,6.70
2018-12-22T23:55:46.941Z,7.00
2018-12-22T23:58:18.517Z,7.23
